Time;durP1;ratioP1;P1;durP2;ratioP2;P2;SDS_P1;SDS_P2;PMS_P1;PMS_P2;Temp;Humidity;BMP_temperature;BMP_pressure;BME280_temperature;BME280_humidity;BME280_pressure;Samples;Min_cycle;Max_cycle;Signal;HPM_P1;HPM_P2
2022/10/14 00:01:47;;;;;;;6.90;5.82;;;12.90;72.70;;;;;;5134868;27;20035;-73
2022/10/14 00:04:13;;;;;;;5.80;5.20;;;12.90;72.80;;;;;;5134601;27;20051;-73
2022/10/14 00:06:39;;;;;;;5.85;5.00;;;12.90;73.30;;;;;;5135103;27;20439;-73
2022/10/14 00:09:07;;;;;;;6.95;6.25;;;12.80;73.00;;;;;;5134903;27;20031;-73
2022/10/14 00:11:35;;;;;;;7.22;5.70;;;12.80;73.10;;;;;;5135123;27;20046;-73
2022/10/14 00:14:11;;;;;;;7.07;6.38;;;12.80;73.20;;;;;;5117485;27;20038;-73
2022/10/14 00:16:38;;;;;;;6.78;6.07;;;12.80;73.30;;;;;;5117709;27;20039;-73
2022/10/14 00:19:05;;;;;;;6.72;6.00;;;12.80;73.40;;;;;;5135008;27;20103;-73
2022/10/14 00:21:31;;;;;;;6.55;5.85;;;12.70;73.50;;;;;;5134534;27;20058;-73
2022/10/14 00:23:57;;;;;;;8.45;7.55;;;12.70;73.60;;;;;;5134934;27;20427;-73
2022/10/14 00:26:26;;;;;;;7.70;6.70;;;12.70;73.70;;;;;;5117850;27;20444;-73
2022/10/14 00:28:52;;;;;;;7.63;6.80;;;12.70;73.90;;;;;;5117304;27;20053;-73
2022/10/14 00:31:19;;;;;;;8.20;7.40;;;12.70;74.00;;;;;;5134540;27;20085;-73
2022/10/14 00:33:45;;;;;;;6.80;6.10;;;12.70;74.10;;;;;;5134216;27;20068;-73
2022/10/14 00:36:13;;;;;;;7.10;6.40;;;12.70;74.10;;;;;;5134083;27;20124;-73
2022/10/14 00:38:39;;;;;;;7.03;6.32;;;12.70;74.20;;;;;;5117405;27;20066;-73
2022/10/14 00:41:05;;;;;;;8.48;7.13;;;12.60;74.20;;;;;;5134403;27;20482;-73
2022/10/14 00:44:03;;;;;;;9.20;8.30;;;12.60;74.30;;;;;;5133989;27;20041;-73
2022/10/14 00:46:32;;;;;;;8.07;6.93;;;12.70;74.30;;;;;;5133948;27;20379;-73
2022/10/14 00:49:02;;;;;;;8.75;7.85;;;12.60;74.40;;;;;;5134080;27;20483;-73
2022/10/14 00:51:28;;;;;;;7.70;6.90;;;12.60;74.50;;;;;;5133596;27;20043;-73
2022/10/14 00:53:54;;;;;;;8.35;7.55;;;12.60;74.50;;;;;;5133940;27;20047;-73
2022/10/14 00:56:24;;;;;;;13.77;9.55;;;12.60;74.60;;;;;;5133793;27;20057;-73
2022/10/14 00:58:50;;;;;;;10.70;8.75;;;12.60;74.70;;;;;;5133941;27;20039;-73
2022/10/14 01:01:16;;;;;;;11.40;8.65;;;12.60;74.80;;;;;;5116726;27;20035;-73
2022/10/14 01:03:42;;;;;;;12.48;9.80;;;12.60;74.90;;;;;;5133807;27;20045;-73
2022/10/14 01:06:30;;;;;;;9.57;7.40;;;12.60;75.00;;;;;;5117112;27;20070;-73
2022/10/14 01:09:23;;;;;;;19.83;13.02;;;12.60;75.10;;;;;;5133044;27;20043;-73
2022/10/14 01:12:10;;;;;;;13.73;9.43;;;12.60;75.20;;;;;;5115129;27;20076;-73
2022/10/14 01:14:51;;;;;;;13.82;10.70;;;12.60;75.30;;;;;;5132973;27;20058;-73
2022/10/14 01:17:25;;;;;;;12.50;9.05;;;12.60;75.40;;;;;;5133010;27;20043;-73
2022/10/14 01:20:21;;;;;;;12.57;9.25;;;12.60;75.40;;;;;;5133447;27;20114;-73
2022/10/14 01:23:33;;;;;;;18.92;13.18;;;12.60;75.50;;;;;;5133468;27;20394;-73
2022/10/14 01:26:28;;;;;;;14.57;10.50;;;12.60;75.40;;;;;;5132933;27;20039;-73
2022/10/14 01:29:17;;;;;;;15.27;10.52;;;12.60;75.60;;;;;;5131411;27;20486;-73
2022/10/14 01:31:47;;;;;;;15.48;11.30;;;12.60;75.60;;;;;;5133287;27;20375;-73
2022/10/14 01:34:21;;;;;;;13.10;10.13;;;12.60;75.70;;;;;;5130552;27;20035;-73
2022/10/14 01:36:55;;;;;;;17.70;12.47;;;12.60;75.80;;;;;;5115860;27;20047;-73
2022/10/14 01:39:25;;;;;;;;;;;12.60;75.80;;;;;;5131712;27;20289;-73
2022/10/14 01:41:57;;;;;;;14.73;10.60;;;12.60;75.40;;;;;;5132677;27;20011;-73
2022/10/14 01:44:25;;;;;;;15.18;11.63;;;12.60;75.80;;;;;;5132937;27;20042;-73
2022/10/14 01:46:54;;;;;;;41.42;14.70;;;12.60;75.80;;;;;;5133005;27;20043;-73
2022/10/14 01:49:34;;;;;;;18.58;13.00;;;12.70;75.90;;;;;;5133253;27;20094;-73
2022/10/14 01:52:22;;;;;;;13.75;11.02;;;12.60;75.80;;;;;;5132669;27;20494;-73
2022/10/14 01:54:52;;;;;;;18.50;14.27;;;12.60;75.70;;;;;;5132452;27;20043;-73
2022/10/14 01:57:23;;;;;;;20.02;13.38;;;12.60;75.90;;;;;;5132353;27;20042;-73
2022/10/14 01:59:51;;;;;;;18.90;13.23;;;12.60;75.90;;;;;;5132809;27;20035;-73
2022/10/14 02:02:17;;;;;;;18.23;12.70;;;12.60;75.90;;;;;;5131713;27;20069;-73
2022/10/14 02:04:43;;;;;;;17.35;12.63;;;12.60;75.90;;;;;;5137268;27;20058;-73
2022/10/14 02:07:35;;;;;;;47.95;14.80;;;12.60;75.90;;;;;;5132162;27;20047;-73
2022/10/14 02:10:18;;;;;;;12.95;9.13;;;12.60;75.80;;;;;;5128208;27;20043;-73
2022/10/14 02:13:01;;;;;;;14.20;10.40;;;12.60;75.90;;;;;;5132350;27;20502;-73
2022/10/14 02:15:27;;;;;;;14.70;10.68;;;12.60;75.90;;;;;;5132409;27;20571;-73
2022/10/14 02:18:25;;;;;;;14.82;10.80;;;12.60;76.00;;;;;;5132292;27;20035;-73
2022/10/14 02:21:16;;;;;;;31.75;13.63;;;12.60;76.00;;;;;;5132529;27;20039;-73
2022/10/14 02:23:50;;;;;;;16.08;12.30;;;12.60;76.00;;;;;;5132138;27;20886;-73
2022/10/14 02:26:17;;;;;;;16.23;11.95;;;12.60;76.00;;;;;;5130851;27;20070;-73
2022/10/14 02:28:45;;;;;;;15.13;11.20;;;12.50;75.90;;;;;;5132201;27;20035;-73
2022/10/14 02:31:14;;;;;;;14.38;9.82;;;12.60;76.00;;;;;;5132089;27;20047;-73
2022/10/14 02:33:42;;;;;;;16.58;12.18;;;12.60;76.00;;;;;;5130001;27;20527;-73
2022/10/14 02:36:11;;;;;;;12.88;10.05;;;12.60;76.10;;;;;;5132010;27;20039;-73
2022/10/14 02:38:39;;;;;;;14.45;10.43;;;12.60;76.10;;;;;;5131660;27;20483;-73
2022/10/14 02:41:11;;;;;;;16.30;12.27;;;12.60;76.00;;;;;;5132148;27;20035;-73
2022/10/14 02:43:37;;;;;;;22.67;13.98;;;12.60;76.10;;;;;;5131727;27;20090;-73
2022/10/14 02:46:04;;;;;;;15.68;12.60;;;12.60;76.00;;;;;;5111763;27;20035;-73
2022/10/14 02:48:30;;;;;;;14.70;12.13;;;12.60;76.00;;;;;;5131818;27;20432;-73
2022/10/14 02:50:56;;;;;;;14.05;11.82;;;12.60;76.00;;;;;;5131779;27;20066;-73
2022/10/14 02:53:21;;;;;;;15.02;10.70;;;12.60;75.90;;;;;;5131681;27;20497;-73
2022/10/14 02:55:47;;;;;;;12.23;9.50;;;12.60;75.80;;;;;;5131581;27;20485;-73
2022/10/14 02:58:13;;;;;;;12.95;9.88;;;12.60;75.70;;;;;;5132024;27;20037;-73
2022/10/14 03:00:38;;;;;;;12.38;10.07;;;12.60;75.70;;;;;;5131842;27;20043;-73
2022/10/14 03:03:04;;;;;;;12.68;10.23;;;12.60;75.60;;;;;;5143036;27;20059;-73
2022/10/14 03:05:30;;;;;;;15.35;12.02;;;12.60;75.50;;;;;;5148937;27;20038;-73
2022/10/14 03:07:56;;;;;;;14.93;11.50;;;12.60;75.40;;;;;;5131150;27;20525;-73
2022/10/14 03:10:21;;;;;;;67.68;15.48;;;12.60;75.30;;;;;;5121182;27;20051;-73
2022/10/14 03:12:47;;;;;;;14.68;11.55;;;12.60;75.30;;;;;;5130935;27;20051;-73
2022/10/14 03:15:13;;;;;;;26.17;14.02;;;12.60;75.30;;;;;;5130718;27;20039;-73
2022/10/14 03:17:38;;;;;;;15.85;12.68;;;12.50;75.10;;;;;;5131379;27;20042;-73
2022/10/14 03:20:05;;;;;;;17.65;12.68;;;12.50;75.00;;;;;;5131495;27;20475;-73
2022/10/14 03:22:31;;;;;;;18.08;12.50;;;12.50;75.10;;;;;;5131359;27;20042;-73
2022/10/14 03:24:57;;;;;;;17.05;10.48;;;12.50;75.10;;;;;;5131309;28;20050;-73
2022/10/14 03:27:23;;;;;;;16.55;11.50;;;12.50;75.00;;;;;;5132721;27;20042;-73
2022/10/14 03:29:48;;;;;;;13.68;11.15;;;12.40;74.90;;;;;;5131163;27;20421;-73
2022/10/14 03:32:14;;;;;;;17.85;10.68;;;12.40;74.80;;;;;;5131379;28;20047;-73
2022/10/14 03:34:39;;;;;;;13.45;10.77;;;12.40;74.70;;;;;;5113917;28;20134;-73
2022/10/14 03:37:06;;;;;;;12.93;10.63;;;12.30;74.70;;;;;;5145761;27;21722;-73
2022/10/14 03:39:32;;;;;;;14.98;10.82;;;12.40;74.70;;;;;;5114070;28;20067;-73
2022/10/14 03:41:58;;;;;;;15.45;10.32;;;12.30;74.70;;;;;;5147908;27;20078;-73
2022/10/14 03:44:23;;;;;;;16.67;11.27;;;12.30;74.80;;;;;;5131323;28;20051;-73
2022/10/14 03:46:49;;;;;;;16.27;11.38;;;12.30;74.80;;;;;;5131012;27;20074;-73
2022/10/14 03:49:15;;;;;;;14.82;11.70;;;12.20;74.80;;;;;;5113890;28;20035;-73
2022/10/14 03:51:40;;;;;;;28.25;12.90;;;12.20;74.90;;;;;;5124260;27;20038;-73
2022/10/14 03:54:06;;;;;;;19.42;11.73;;;12.20;74.80;;;;;;5096709;28;20477;-73
2022/10/14 03:56:32;;;;;;;16.98;13.45;;;12.10;74.50;;;;;;5146380;27;20031;-73
2022/10/14 03:58:58;;;;;;;13.52;11.68;;;12.10;74.90;;;;;;5113453;28;20083;-72
2022/10/14 04:01:23;;;;;;;21.02;13.00;;;12.10;75.00;;;;;;5130230;28;20129;-72
2022/10/14 04:03:50;;;;;;;27.15;13.30;;;12.00;75.10;;;;;;5141712;27;20074;-72
2022/10/14 04:06:16;;;;;;;25.30;14.80;;;12.00;75.10;;;;;;5114549;28;20039;-72
2022/10/14 04:08:42;;;;;;;32.40;13.95;;;12.00;75.20;;;;;;5130985;28;20471;-73
2022/10/14 04:11:08;;;;;;;21.92;13.65;;;11.90;75.30;;;;;;5130920;28;20031;-74
2022/10/14 04:13:35;;;;;;;19.50;13.40;;;11.90;75.40;;;;;;5130858;28;20084;-73
2022/10/14 04:16:09;;;;;;;19.45;13.05;;;11.90;75.60;;;;;;5128100;27;20035;-71
2022/10/14 04:18:35;;;;;;;24.23;12.73;;;11.80;75.80;;;;;;5130940;28;20087;-71
2022/10/14 04:21:07;;;;;;;21.73;14.02;;;11.80;75.90;;;;;;5130574;28;20164;-71
2022/10/14 04:23:33;;;;;;;36.03;14.80;;;11.80;76.10;;;;;;5130832;27;20035;-71
2022/10/14 04:26:04;;;;;;;23.45;14.93;;;11.70;76.20;;;;;;5133909;27;20043;-71
2022/10/14 04:28:30;;;;;;;19.65;13.07;;;11.70;76.30;;;;;;5133048;27;20050;-71
2022/10/14 04:30:55;;;;;;;14.05;10.27;;;11.60;76.50;;;;;;5134356;27;20035;-71
2022/10/14 04:33:22;;;;;;;18.08;12.60;;;11.60;76.70;;;;;;5139465;27;20047;-71
2022/10/14 04:35:47;;;;;;;23.08;15.48;;;11.60;76.90;;;;;;5117368;27;20511;-71
2022/10/14 04:38:13;;;;;;;25.55;14.98;;;11.60;77.10;;;;;;5143406;27;20055;-71
2022/10/14 04:40:39;;;;;;;14.43;10.63;;;11.60;77.10;;;;;;5134684;27;20096;-71
2022/10/14 04:43:04;;;;;;;22.88;13.50;;;11.60;77.20;;;;;;5150909;27;20053;-71
2022/10/14 04:45:31;;;;;;;29.35;14.60;;;11.60;77.30;;;;;;5122399;27;20500;-71
2022/10/14 04:47:56;;;;;;;21.27;14.35;;;11.60;77.20;;;;;;5116940;27;20038;-71
2022/10/14 04:50:22;;;;;;;17.63;12.25;;;11.60;77.30;;;;;;5134134;27;20042;-72
2022/10/14 04:52:48;;;;;;;27.35;13.95;;;11.60;77.50;;;;;;5142523;27;20043;-72
2022/10/14 04:55:13;;;;;;;40.33;16.42;;;11.60;77.60;;;;;;5117240;27;20035;-72
2022/10/14 04:57:41;;;;;;;23.63;14.70;;;11.50;77.60;;;;;;5150530;27;20122;-72
2022/10/14 05:00:09;;;;;;;21.70;14.00;;;11.50;77.60;;;;;;5117468;27;20138;-72
2022/10/14 05:02:34;;;;;;;24.88;13.05;;;11.50;77.80;;;;;;5134155;27;20424;-72
2022/10/14 05:05:00;;;;;;;25.70;14.68;;;11.50;77.90;;;;;;5116648;27;20036;-72
2022/10/14 05:07:26;;;;;;;21.77;13.77;;;11.40;78.00;;;;;;5138101;27;20035;-72
2022/10/14 05:09:53;;;;;;;26.73;14.60;;;11.40;78.10;;;;;;5133923;27;20081;-72
2022/10/14 05:12:18;;;;;;;23.23;14.05;;;11.40;78.20;;;;;;5116712;27;20069;-72
2022/10/14 05:14:44;;;;;;;32.15;14.10;;;11.40;78.30;;;;;;5133671;27;20114;-72
2022/10/14 05:17:10;;;;;;;38.08;16.02;;;11.40;78.30;;;;;;5116503;27;20717;-72
2022/10/14 05:19:35;;;;;;;28.77;14.60;;;11.40;78.30;;;;;;5131423;27;20036;-72
2022/10/14 05:22:01;;;;;;;23.58;14.57;;;11.40;78.40;;;;;;5109880;27;20067;-72
2022/10/14 05:24:27;;;;;;;17.55;12.68;;;11.40;78.50;;;;;;5133494;27;20067;-72
2022/10/14 05:26:52;;;;;;;21.27;13.57;;;11.40;78.60;;;;;;5148816;27;20031;-73
2022/10/14 05:29:18;;;;;;;31.40;15.60;;;11.40;78.70;;;;;;5147365;27;20027;-73
2022/10/14 05:31:44;;;;;;;28.73;14.55;;;11.40;78.80;;;;;;5142486;27;20120;-73
2022/10/14 05:34:10;;;;;;;20.85;14.60;;;11.40;78.80;;;;;;5134214;27;20041;-73
2022/10/14 05:36:36;;;;;;;18.23;12.30;;;11.40;78.80;;;;;;5133070;27;20035;-72
2022/10/14 05:39:05;;;;;;;22.23;14.95;;;11.40;78.90;;;;;;5117141;27;20043;-73
2022/10/14 05:41:31;;;;;;;26.80;16.20;;;11.40;78.90;;;;;;5134132;27;20510;-73
2022/10/14 05:43:57;;;;;;;17.70;12.65;;;11.40;78.90;;;;;;5134311;27;20172;-73
2022/10/14 05:46:22;;;;;;;16.70;12.80;;;11.40;79.00;;;;;;5133570;27;20045;-73
2022/10/14 05:48:48;;;;;;;39.28;16.33;;;11.40;79.00;;;;;;5121763;27;20048;-73
2022/10/14 05:51:14;;;;;;;22.67;14.98;;;11.40;78.90;;;;;;5114865;27;20050;-73
2022/10/14 05:53:40;;;;;;;24.38;14.93;;;11.50;79.00;;;;;;5133792;27;20079;-73
2022/10/14 05:56:08;;;;;;;21.33;14.82;;;11.50;78.90;;;;;;5133872;27;20078;-73
2022/10/14 05:58:34;;;;;;;22.15;13.15;;;11.50;78.90;;;;;;5117240;27;20108;-73
2022/10/14 06:01:05;;;;;;;27.67;15.57;;;11.50;78.90;;;;;;5117177;27;20498;-73
2022/10/14 06:03:31;;;;;;;55.28;16.67;;;11.50;79.00;;;;;;5133562;27;20132;-72
2022/10/14 06:05:57;;;;;;;32.08;16.90;;;11.50;78.90;;;;;;5133809;27;20051;-72
2022/10/14 06:08:23;;;;;;;33.05;15.50;;;11.50;78.80;;;;;;5133654;27;20050;-72
2022/10/14 06:10:50;;;;;;;55.00;17.75;;;11.50;79.20;;;;;;5133718;27;20047;-72
2022/10/14 06:13:16;;;;;;;41.08;18.20;;;11.50;78.80;;;;;;5133413;27;20039;-72
2022/10/14 06:15:41;;;;;;;33.13;16.75;;;11.50;78.90;;;;;;5116603;27;20035;-73
2022/10/14 06:18:07;;;;;;;31.10;18.90;;;11.50;79.00;;;;;;5150849;27;20039;-72
2022/10/14 06:20:33;;;;;;;67.47;20.27;;;11.50;79.10;;;;;;5133204;27;20031;-73
2022/10/14 06:22:59;;;;;;;39.28;18.20;;;11.50;79.20;;;;;;5142560;27;20048;-73
2022/10/14 06:25:25;;;;;;;36.05;18.52;;;11.50;79.20;;;;;;5149256;27;20097;-73
2022/10/14 06:27:51;;;;;;;33.63;18.10;;;11.50;79.30;;;;;;5132529;27;20074;-73
2022/10/14 06:30:17;;;;;;;62.03;19.95;;;11.40;79.30;;;;;;5131222;27;20030;-72
2022/10/14 06:32:42;;;;;;;54.10;19.23;;;11.40;79.40;;;;;;5131807;27;20031;-72
2022/10/14 06:35:08;;;;;;;45.13;17.73;;;11.40;79.50;;;;;;5148809;27;20388;-72
2022/10/14 06:37:34;;;;;;;60.90;18.52;;;11.50;79.70;;;;;;5148593;27;20082;-73
2022/10/14 06:40:00;;;;;;;45.78;19.27;;;11.50;79.80;;;;;;5149943;27;20529;-72
2022/10/14 06:42:25;;;;;;;58.38;19.02;;;11.40;79.80;;;;;;5149533;27;20497;-73
2022/10/14 06:44:51;;;;;;;51.85;20.02;;;11.40;79.90;;;;;;5147329;27;20035;-73
2022/10/14 06:47:17;;;;;;;46.75;19.30;;;11.50;80.00;;;;;;5114293;27;20327;-73
2022/10/14 06:49:42;;;;;;;66.32;22.05;;;11.50;80.10;;;;;;5149027;27;20196;-73
2022/10/14 06:52:08;;;;;;;53.65;19.85;;;11.40;80.20;;;;;;5148540;27;20059;-73
2022/10/14 06:54:34;;;;;;;49.60;21.80;;;11.50;80.70;;;;;;5147827;27;20418;-73
2022/10/14 06:56:59;;;;;;;65.40;22.48;;;11.50;80.40;;;;;;5149168;27;20127;-73
2022/10/14 06:59:27;;;;;;;61.60;22.77;;;11.50;80.50;;;;;;5149511;27;20030;-72
2022/10/14 07:01:54;;;;;;;50.17;22.33;;;11.50;80.60;;;;;;5149535;27;20053;-73
2022/10/14 07:04:20;;;;;;;71.10;22.42;;;11.50;80.80;;;;;;5146442;27;20043;-73
2022/10/14 07:06:45;;;;;;;54.70;23.20;;;11.50;80.90;;;;;;5147989;27;20035;-73
2022/10/14 07:09:11;;;;;;;58.72;24.75;;;11.50;81.00;;;;;;5149511;27;20035;-72
2022/10/14 07:11:37;;;;;;;50.35;23.02;;;11.60;81.10;;;;;;5149137;27;20034;-73
2022/10/14 07:14:02;;;;;;;50.38;23.15;;;11.60;81.30;;;;;;5148329;27;20031;-73
2022/10/14 07:16:28;;;;;;;54.60;25.48;;;11.60;81.40;;;;;;5112170;27;20305;-73
2022/10/14 07:18:54;;;;;;;59.17;25.95;;;11.60;81.40;;;;;;5145175;27;20057;-72
2022/10/14 07:21:19;;;;;;;52.40;25.33;;;11.60;81.50;;;;;;5128489;27;20046;-73
2022/10/14 07:23:45;;;;;;;53.83;25.35;;;11.60;81.60;;;;;;5144811;27;20089;-73
2022/10/14 07:26:11;;;;;;;57.22;25.10;;;11.70;81.60;;;;;;5109394;27;20043;-73
2022/10/14 07:28:37;;;;;;;57.42;24.98;;;11.60;81.60;;;;;;5146856;27;20074;-73
2022/10/14 07:31:05;;;;;;;56.50;25.95;;;11.60;81.70;;;;;;5131105;27;20039;-73
2022/10/14 07:33:33;;;;;;;57.47;24.80;;;11.70;81.80;;;;;;5113228;28;20035;-73
2022/10/14 07:36:04;;;;;;;51.88;24.70;;;11.70;81.90;;;;;;5122619;27;20043;-73
2022/10/14 07:38:30;;;;;;;51.55;24.85;;;11.70;81.90;;;;;;5127660;27;20042;-73
2022/10/14 07:41:04;;;;;;;51.17;24.15;;;11.70;81.90;;;;;;5130908;27;20038;-73
2022/10/14 07:43:31;;;;;;;49.50;24.15;;;11.70;81.90;;;;;;5143964;27;20045;-73
2022/10/14 07:46:01;;;;;;;45.35;22.85;;;11.80;82.00;;;;;;5144416;27;20823;-73
2022/10/14 07:48:29;;;;;;;50.08;23.35;;;11.80;82.10;;;;;;5141710;27;20840;-73
2022/10/14 07:50:55;;;;;;;50.85;24.27;;;11.80;82.10;;;;;;5123579;27;20050;-73
2022/10/14 07:53:22;;;;;;;54.10;26.17;;;11.80;82.20;;;;;;5121514;27;20679;-73
2022/10/14 07:55:51;;;;;;;49.95;25.08;;;11.80;82.30;;;;;;5123737;27;20039;-73
2022/10/14 07:58:21;;;;;;;56.88;26.40;;;11.90;82.30;;;;;;5126414;27;20039;-73
2022/10/14 08:00:48;;;;;;;50.15;23.83;;;11.90;82.40;;;;;;5146734;27;20060;-73
2022/10/14 08:03:15;;;;;;;47.38;23.55;;;11.90;82.40;;;;;;5145516;27;20042;-73
2022/10/14 08:05:41;;;;;;;46.15;23.98;;;11.90;82.40;;;;;;5148124;27;20038;-73
2022/10/14 08:08:07;;;;;;;46.90;25.27;;;11.90;82.50;;;;;;5133302;27;20462;-73
2022/10/14 08:10:33;;;;;;;49.10;25.23;;;12.00;82.50;;;;;;5152866;27;20084;-73
2022/10/14 08:12:59;;;;;;;46.63;24.90;;;12.00;82.60;;;;;;5135049;27;20494;-73
2022/10/14 08:15:29;;;;;;;48.80;25.55;;;12.00;82.60;;;;;;5145778;27;20031;-73
2022/10/14 08:17:55;;;;;;;44.63;23.77;;;12.10;82.70;;;;;;5134320;27;20482;-73
2022/10/14 08:20:21;;;;;;;47.85;24.92;;;12.10;82.70;;;;;;5133734;27;20070;-73
2022/10/14 08:22:46;;;;;;;53.45;26.17;;;12.10;82.70;;;;;;5134487;27;20088;-73
2022/10/14 08:25:12;;;;;;;49.90;25.38;;;12.10;82.70;;;;;;5133901;27;20035;-73
2022/10/14 08:27:38;;;;;;;49.80;26.35;;;12.20;82.70;;;;;;5134647;27;20039;-73
2022/10/14 08:30:04;;;;;;;51.83;26.45;;;12.20;82.70;;;;;;5117230;27;20041;-73
2022/10/14 08:32:30;;;;;;;51.20;26.45;;;12.20;82.70;;;;;;5132374;27;20386;-73
2022/10/14 08:34:56;;;;;;;51.15;26.42;;;12.20;82.70;;;;;;5133963;27;20038;-73
2022/10/14 08:37:22;;;;;;;50.15;26.65;;;12.30;82.70;;;;;;5150245;27;20039;-73
2022/10/14 08:39:47;;;;;;;53.60;26.50;;;12.30;83.20;;;;;;5133964;27;20039;-73
2022/10/14 08:42:37;;;;;;;53.53;26.70;;;12.30;82.80;;;;;;5134558;27;20110;-73
2022/10/14 08:45:23;;;;;;;46.22;26.35;;;12.40;82.90;;;;;;5133668;27;20041;-73
2022/10/14 08:47:54;;;;;;;53.42;27.35;;;12.40;82.80;;;;;;5140550;27;20100;-73
2022/10/14 08:50:36;;;;;;;48.22;25.70;;;12.30;82.90;;;;;;5140080;27;20038;-72
2022/10/14 08:53:11;;;;;;;50.50;25.77;;;12.40;82.90;;;;;;5110994;27;20486;-73
2022/10/14 08:55:47;;;;;;;42.95;22.58;;;12.40;82.90;;;;;;5133524;27;20165;-73
2022/10/14 08:58:22;;;;;;;39.53;21.88;;;12.40;82.80;;;;;;5117055;27;20031;-73
2022/10/14 09:00:51;;;;;;;39.30;22.05;;;12.40;82.90;;;;;;5137197;27;20063;-75
2022/10/14 09:03:32;;;;;;;37.05;20.92;;;12.40;82.90;;;;;;5116730;27;20041;-73
2022/10/14 09:06:01;;;;;;;39.20;20.65;;;12.50;83.00;;;;;;5115888;27;20066;-73
2022/10/14 09:08:34;;;;;;;34.97;19.00;;;12.50;82.90;;;;;;5133770;27;20498;-73
2022/10/14 09:11:00;;;;;;;37.50;19.58;;;12.50;83.00;;;;;;5132009;27;20047;-73
2022/10/14 09:13:41;;;;;;;34.00;19.08;;;12.60;83.00;;;;;;5137030;27;20359;-73
2022/10/14 09:16:18;;;;;;;35.47;18.38;;;12.60;83.10;;;;;;5146011;27;21492;-73
2022/10/14 09:18:57;;;;;;;34.50;17.80;;;12.60;83.10;;;;;;5147191;27;20064;-73
2022/10/14 09:21:28;;;;;;;36.03;19.65;;;12.60;83.10;;;;;;5146652;27;20038;-73
2022/10/14 09:24:13;;;;;;;31.73;17.63;;;12.60;83.10;;;;;;5129219;27;20035;-73
2022/10/14 09:26:45;;;;;;;35.25;18.35;;;12.60;83.20;;;;;;5146557;27;20160;-73
2022/10/14 09:29:21;;;;;;;29.85;17.05;;;12.70;83.20;;;;;;5146816;27;20045;-73
2022/10/14 09:31:47;;;;;;;31.67;16.23;;;12.70;83.30;;;;;;5147425;27;20053;-73
2022/10/14 09:34:19;;;;;;;29.33;16.27;;;12.70;83.20;;;;;;5129527;27;20042;-73
2022/10/14 09:36:47;;;;;;;29.75;16.08;;;12.70;83.30;;;;;;5148366;27;20039;-73
2022/10/14 09:39:13;;;;;;;27.85;15.60;;;12.70;83.30;;;;;;5129983;27;20602;-73
2022/10/14 09:41:39;;;;;;;26.40;14.90;;;12.80;83.70;;;;;;5148213;27;20390;-73
2022/10/14 09:44:17;;;;;;;27.20;14.60;;;12.80;83.30;;;;;;5129110;27;20042;-73
2022/10/14 09:46:47;;;;;;;22.60;14.27;;;12.80;83.40;;;;;;5144623;27;20038;-73
2022/10/14 09:49:22;;;;;;;24.20;14.40;;;12.80;83.40;;;;;;5136852;27;20039;-73
2022/10/14 09:51:50;;;;;;;27.38;15.70;;;12.80;83.40;;;;;;5132039;27;20043;-73
2022/10/14 09:54:29;;;;;;;27.85;15.80;;;12.80;83.40;;;;;;5138784;27;20058;-73
2022/10/14 09:57:07;;;;;;;25.73;14.35;;;12.90;83.60;;;;;;5114917;27;20090;-73
2022/10/14 09:59:47;;;;;;;30.02;15.57;;;12.90;83.60;;;;;;5132721;27;20035;-73
2022/10/14 10:02:31;;;;;;;28.48;15.27;;;12.90;83.60;;;;;;5139186;27;20119;-73
2022/10/14 10:04:57;;;;;;;28.13;15.30;;;12.90;83.70;;;;;;5136308;27;20062;-73
2022/10/14 10:07:33;;;;;;;30.73;15.43;;;12.90;83.60;;;;;;5116606;27;20027;-73
2022/10/14 10:10:21;;;;;;;28.08;14.35;;;13.00;83.80;;;;;;5115374;27;20084;-73
2022/10/14 10:12:47;;;;;;;30.27;15.73;;;13.00;83.70;;;;;;5131328;27;20051;-74
2022/10/14 10:15:20;;;;;;;27.13;14.77;;;13.00;83.70;;;;;;5115336;27;20038;-73
2022/10/14 10:17:46;;;;;;;26.95;13.43;;;13.00;83.90;;;;;;5135005;27;20501;-73
2022/10/14 10:20:32;;;;;;;26.00;14.38;;;13.10;83.90;;;;;;5133339;27;20035;-73
2022/10/14 10:23:18;;;;;;;23.75;13.93;;;13.10;84.10;;;;;;5132715;27;20047;-73
2022/10/14 10:25:43;;;;;;;25.95;13.38;;;13.10;84.10;;;;;;5146184;27;20155;-73
2022/10/14 10:28:16;;;;;;;25.70;13.07;;;13.10;84.00;;;;;;5131971;27;20530;-73
2022/10/14 10:30:50;;;;;;;22.42;12.35;;;13.20;84.20;;;;;;5112742;28;20036;-73
2022/10/14 10:33:55;;;;;;;25.63;12.48;;;13.20;84.10;;;;;;5109474;27;20074;-73
2022/10/14 10:36:29;;;;;;;20.85;11.93;;;13.30;84.30;;;;;;5109848;27;20454;-73
2022/10/14 10:39:00;;;;;;;;;;;13.20;84.20;;;;;;5129173;27;20059;-73
2022/10/14 10:41:33;;;;;;;19.45;11.25;;;13.20;83.90;;;;;;5144400;27;20303;-73
2022/10/14 10:44:31;;;;;;;25.60;13.30;;;13.30;84.30;;;;;;5143262;27;20043;-73
2022/10/14 10:47:23;;;;;;;22.40;10.68;;;13.30;84.10;;;;;;5126582;27;20047;-73
2022/10/14 10:50:15;;;;;;;22.25;12.35;;;13.30;84.20;;;;;;5144604;27;20039;-73
2022/10/14 10:53:21;;;;;;;21.02;10.65;;;13.30;84.20;;;;;;5145739;27;20042;-73
2022/10/14 10:55:56;;;;;;;21.20;11.90;;;13.40;84.20;;;;;;5144676;27;20457;-73
2022/10/14 10:58:47;;;;;;;21.45;12.20;;;13.40;84.10;;;;;;5143683;27;20502;-73
2022/10/14 11:01:36;;;;;;;22.52;11.45;;;13.40;84.20;;;;;;5147155;27;20034;-73
2022/10/14 11:04:26;;;;;;;22.83;12.70;;;13.40;84.30;;;;;;5144995;27;20035;-73
2022/10/14 11:13:44;;;;;;;22.35;12.15;;;13.50;84.40;;;;;;5142195;27;20097;-73
2022/10/14 11:16:09;;;;;;;20.38;11.52;;;13.50;84.40;;;;;;5132488;27;20039;-73
2022/10/14 11:18:57;;;;;;;20.88;11.50;;;13.60;84.50;;;;;;5147837;27;20041;-73
2022/10/14 11:21:36;;;;;;;22.95;11.50;;;13.60;84.60;;;;;;5149599;27;20042;-73
2022/10/14 11:24:10;;;;;;;21.45;11.90;;;13.60;84.70;;;;;;5132630;27;20035;-73
2022/10/14 11:26:45;;;;;;;25.20;12.63;;;13.60;84.70;;;;;;5124528;27;20066;-73
2022/10/14 11:29:41;;;;;;;20.80;11.45;;;13.70;84.80;;;;;;5125679;27;20519;-73
2022/10/14 11:32:29;;;;;;;20.30;11.55;;;13.70;84.90;;;;;;5132123;28;20058;-74
2022/10/14 11:35:25;;;;;;;19.45;11.20;;;13.80;85.00;;;;;;5133824;27;20117;-73
2022/10/14 11:38:02;;;;;;;23.08;12.57;;;13.80;85.00;;;;;;5151491;27;20432;-73
2022/10/14 11:40:54;;;;;;;25.30;12.93;;;13.80;85.00;;;;;;5136448;27;20039;-73
2022/10/14 11:43:31;;;;;;;27.15;14.07;;;13.80;85.10;;;;;;5109115;28;20122;-73
2022/10/14 11:46:16;;;;;;;28.80;15.30;;;13.90;85.20;;;;;;5134452;27;20234;-73
2022/10/14 11:48:51;;;;;;;29.45;15.88;;;13.90;85.20;;;;;;5136126;27;20120;-74
2022/10/14 11:51:20;;;;;;;35.22;17.33;;;13.90;85.20;;;;;;5151961;27;20039;-73
2022/10/14 11:54:00;;;;;;;37.70;18.45;;;14.00;85.30;;;;;;5133430;27;20054;-73
2022/10/14 11:56:56;;;;;;;39.92;18.48;;;14.00;85.40;;;;;;5137388;27;20043;-74
2022/10/14 11:59:40;;;;;;;31.27;17.73;;;14.10;85.60;;;;;;5134926;27;20478;-74
2022/10/14 12:02:35;;;;;;;39.20;19.90;;;14.10;85.70;;;;;;5135525;27;20031;-77
2022/10/14 12:05:21;;;;;;;36.40;18.65;;;14.10;85.80;;;;;;5124498;27;20053;-77
2022/10/14 12:08:14;;;;;;;40.28;21.00;;;14.20;85.90;;;;;;5118155;27;20280;-77
2022/10/14 12:10:54;;;;;;;35.65;20.42;;;14.20;85.90;;;;;;5119076;27;20039;-78
2022/10/14 12:13:31;;;;;;;39.10;20.20;;;14.20;86.00;;;;;;5114696;27;20401;-78
2022/10/14 12:15:59;;;;;;;37.95;20.85;;;14.30;86.20;;;;;;5145844;27;20096;-77
2022/10/14 12:18:27;;;;;;;35.95;19.65;;;14.30;86.10;;;;;;5118822;27;20147;-77
2022/10/14 12:21:14;;;;;;;45.35;22.33;;;14.30;86.10;;;;;;5136221;27;20490;-77
2022/10/14 12:23:47;;;;;;;38.38;20.15;;;14.40;86.40;;;;;;5150630;27;20047;-77
2022/10/14 12:26:19;;;;;;;34.03;19.05;;;14.40;86.50;;;;;;5136466;27;20049;-77
2022/10/14 12:28:45;;;;;;;34.08;18.42;;;14.50;86.60;;;;;;5118225;27;20039;-77
2022/10/14 12:31:30;;;;;;;36.05;18.90;;;14.50;86.60;;;;;;5136016;27;20129;-76
2022/10/14 12:34:13;;;;;;;31.65;18.02;;;14.60;86.80;;;;;;5135574;27;20054;-77
2022/10/14 12:36:42;;;;;;;26.00;15.77;;;14.60;86.80;;;;;;5135739;27;20043;-77
2022/10/14 12:39:16;;;;;;;21.05;13.70;;;14.60;86.70;;;;;;5126021;27;20481;-77
2022/10/14 12:41:57;;;;;;;20.15;13.73;;;14.70;86.90;;;;;;5149662;27;20381;-77
2022/10/14 12:44:32;;;;;;;19.38;14.35;;;14.70;87.00;;;;;;5146662;27;20038;-77
2022/10/14 12:46:58;;;;;;;14.65;12.05;;;14.80;87.00;;;;;;5148659;27;21375;-77
2022/10/14 12:49:31;;;;;;;16.20;11.73;;;14.80;87.00;;;;;;5145777;27;20047;-77
2022/10/14 12:52:03;;;;;;;15.30;11.60;;;14.90;87.10;;;;;;5148791;27;20490;-76
2022/10/14 12:54:30;;;;;;;15.55;11.20;;;14.90;87.10;;;;;;5130774;27;20107;-79
2022/10/14 12:56:56;;;;;;;13.77;11.90;;;14.90;87.10;;;;;;5146004;27;20057;-78